Time;durP1;ratioP1;P1;durP2;ratioP2;P2;SDS_P1;SDS_P2;PMS_P1;PMS_P2;Temp;Humidity;BMP_temperature;BMP_pressure;BME280_temperature;BME280_humidity;BME280_pressure;Samples;Min_cycle;Max_cycle;Signal;HPM_P1;HPM_P2
2022/08/31 00:04:55;;;;;;;7.18;5.25;;;17.90;99.90;;;;;;5001481;28;20028;-72
2022/08/31 00:07:22;;;;;;;5.82;4.93;;;17.90;99.90;;;;;;5001690;28;20030;-72
2022/08/31 00:09:48;;;;;;;6.40;5.15;;;17.60;99.90;;;;;;5004524;28;20061;-72
2022/08/31 00:12:14;;;;;;;5.53;5.00;;;17.50;99.90;;;;;;5001152;28;20653;-72
2022/08/31 00:14:39;;;;;;;8.15;5.78;;;17.50;99.90;;;;;;4996975;28;20026;-72
2022/08/31 00:17:06;;;;;;;7.85;5.38;;;17.50;99.90;;;;;;5002767;28;20125;-72
2022/08/31 00:19:31;;;;;;;7.15;5.43;;;17.50;99.90;;;;;;5000044;28;20553;-73
2022/08/31 00:21:57;;;;;;;7.43;5.75;;;17.60;99.90;;;;;;5003223;28;20013;-73
2022/08/31 00:24:22;;;;;;;8.30;5.70;;;17.60;99.90;;;;;;5001305;28;20027;-73
2022/08/31 00:26:48;;;;;;;9.05;4.88;;;17.50;99.90;;;;;;5003680;28;20069;-71
2022/08/31 00:29:14;;;;;;;8.10;5.38;;;17.40;99.90;;;;;;4998371;28;20122;-72
2022/08/31 00:31:40;;;;;;;10.82;6.05;;;17.40;99.90;;;;;;4998720;28;20402;-73
2022/08/31 00:34:06;;;;;;;11.68;5.60;;;17.50;99.90;;;;;;4996169;28;20105;-72
2022/08/31 00:36:32;;;;;;;7.03;5.63;;;17.40;99.90;;;;;;5003773;28;20061;-72
2022/08/31 00:38:57;;;;;;;7.40;5.80;;;17.40;99.90;;;;;;4988077;28;20392;-73
2022/08/31 00:41:26;;;;;;;7.35;5.63;;;17.40;99.90;;;;;;5001914;28;20025;-72
2022/08/31 00:43:56;;;;;;;6.88;5.70;;;17.50;99.90;;;;;;5002375;28;20475;-72
2022/08/31 00:46:26;;;;;;;7.47;6.40;;;17.20;99.90;;;;;;5000006;28;20038;-71
2022/08/31 00:49:01;;;;;;;7.63;5.35;;;17.20;99.90;;;;;;4996282;28;20026;-72
2022/08/31 00:51:30;;;;;;;6.90;5.95;;;17.00;99.90;;;;;;4990229;28;20023;-74
2022/08/31 00:53:56;;;;;;;8.95;5.90;;;17.10;99.90;;;;;;4995478;28;20030;-74
2022/08/31 00:56:23;;;;;;;7.80;5.95;;;17.00;99.90;;;;;;4989737;28;20042;-74
2022/08/31 00:58:50;;;;;;;9.15;6.10;;;17.00;99.90;;;;;;4995987;28;20053;-74
2022/08/31 01:01:18;;;;;;;8.77;5.60;;;17.00;99.90;;;;;;4999019;28;20400;-74
2022/08/31 01:03:44;;;;;;;8.25;6.15;;;17.10;99.90;;;;;;5001764;28;20476;-73
2022/08/31 01:06:10;;;;;;;7.68;5.97;;;17.00;99.90;;;;;;4987902;28;20041;-73
2022/08/31 01:08:36;;;;;;;9.98;6.38;;;16.90;99.90;;;;;;5006764;28;20447;-73
2022/08/31 01:11:01;;;;;;;8.95;6.28;;;17.00;99.90;;;;;;5009911;28;20037;-73
2022/08/31 01:13:30;;;;;;;7.20;6.10;;;17.10;99.90;;;;;;5006464;28;20042;-73
2022/08/31 01:16:00;;;;;;;7.35;6.20;;;16.90;99.90;;;;;;5000351;28;20101;-73
2022/08/31 01:18:27;;;;;;;8.48;5.82;;;17.00;99.90;;;;;;5005219;28;20050;-73
2022/08/31 01:21:24;;;;;;;9.57;6.35;;;16.90;99.90;;;;;;4993055;28;20030;-73
2022/08/31 01:23:52;;;;;;;7.40;5.70;;;17.00;99.90;;;;;;4994583;28;20034;-72
2022/08/31 01:26:22;;;;;;;8.55;5.95;;;17.00;99.90;;;;;;4996300;28;20041;-72
2022/08/31 01:28:49;;;;;;;9.05;5.45;;;17.20;99.90;;;;;;4990126;28;20422;-73
2022/08/31 01:31:21;;;;;;;8.20;5.80;;;17.30;99.90;;;;;;5003538;28;20053;-73
2022/08/31 01:33:48;;;;;;;9.18;5.85;;;17.20;99.90;;;;;;4988908;28;20018;-73
2022/08/31 01:36:15;;;;;;;8.98;6.57;;;17.10;99.90;;;;;;5006179;28;20018;-73
2022/08/31 01:38:41;;;;;;;7.55;6.10;;;17.10;99.90;;;;;;5008144;28;20022;-73
2022/08/31 01:41:07;;;;;;;6.32;5.60;;;17.20;99.90;;;;;;5006379;28;20023;-73
2022/08/31 01:43:33;;;;;;;10.15;5.88;;;17.20;99.90;;;;;;4996403;28;20560;-72
2022/08/31 01:46:04;;;;;;;9.43;6.78;;;17.10;99.90;;;;;;5003186;28;20026;-76
2022/08/31 01:48:31;;;;;;;10.10;6.35;;;17.20;99.90;;;;;;4995964;28;20026;-73
2022/08/31 01:50:57;;;;;;;8.45;6.10;;;17.20;99.90;;;;;;5004794;28;20034;-73
2022/08/31 01:53:22;;;;;;;7.75;6.05;;;17.10;99.90;;;;;;5012150;28;20550;-72
2022/08/31 01:55:48;;;;;;;8.18;6.47;;;17.10;99.90;;;;;;4998117;28;20632;-72
2022/08/31 01:58:14;;;;;;;9.27;6.40;;;17.10;99.90;;;;;;5009681;28;20022;-73
2022/08/31 02:00:40;;;;;;;7.13;6.35;;;17.10;99.90;;;;;;4994059;28;20400;-72
2022/08/31 02:03:06;;;;;;;7.95;6.30;;;17.10;99.90;;;;;;5009695;28;20026;-73
2022/08/31 02:05:36;;;;;;;7.15;6.38;;;17.10;99.90;;;;;;5000626;28;20033;-73
2022/08/31 02:08:04;;;;;;;8.70;6.22;;;17.00;99.90;;;;;;5008278;28;20388;-72
2022/08/31 02:10:30;;;;;;;7.22;6.20;;;17.10;99.90;;;;;;5005493;28;20026;-73
2022/08/31 02:12:56;;;;;;;9.05;6.80;;;17.10;99.90;;;;;;4987706;28;20037;-74
2022/08/31 02:15:21;;;;;;;10.88;6.90;;;17.00;99.90;;;;;;4998297;28;20045;-73
2022/08/31 02:17:47;;;;;;;10.25;6.38;;;17.10;99.90;;;;;;5013278;28;20034;-72
2022/08/31 02:20:15;;;;;;;8.23;6.70;;;17.10;99.90;;;;;;4987378;28;20382;-74
2022/08/31 02:22:41;;;;;;;10.52;6.80;;;17.00;99.90;;;;;;5004535;28;20053;-72
2022/08/31 02:25:08;;;;;;;8.02;6.43;;;17.00;99.90;;;;;;5003974;28;20030;-72
2022/08/31 02:27:35;;;;;;;8.80;6.30;;;17.00;99.90;;;;;;5007213;28;20104;-72
2022/08/31 02:30:04;;;;;;;8.65;6.30;;;17.00;99.90;;;;;;5008278;28;20444;-72
2022/08/31 02:32:29;;;;;;;8.57;6.60;;;17.00;99.90;;;;;;5005016;28;20073;-72
2022/08/31 02:34:55;;;;;;;8.55;6.85;;;17.00;99.90;;;;;;4993068;28;20045;-73
2022/08/31 02:37:20;;;;;;;8.27;5.88;;;17.00;99.90;;;;;;4992466;28;20077;-73
2022/08/31 02:39:46;;;;;;;7.10;5.75;;;17.00;99.90;;;;;;5004557;28;20575;-73
2022/08/31 02:42:12;;;;;;;9.40;6.20;;;16.80;99.90;;;;;;5000541;28;20026;-72
2022/08/31 02:44:37;;;;;;;7.38;6.00;;;16.70;99.90;;;;;;5005953;28;20034;-73
2022/08/31 02:47:03;;;;;;;9.63;6.93;;;16.80;99.90;;;;;;4999597;28;20100;-73
2022/08/31 02:49:31;;;;;;;7.85;6.65;;;16.80;99.90;;;;;;5002290;28;20039;-73
2022/08/31 02:51:57;;;;;;;12.57;6.70;;;16.90;99.90;;;;;;4994065;28;20053;-73
2022/08/31 02:54:22;;;;;;;7.00;6.00;;;16.90;99.90;;;;;;4988930;28;20473;-72
2022/08/31 02:56:48;;;;;;;9.65;6.65;;;17.00;99.90;;;;;;4986654;28;20027;-72
2022/08/31 02:59:13;;;;;;;9.70;6.75;;;16.80;99.90;;;;;;4981526;28;20113;-72
2022/08/31 03:01:39;;;;;;;8.05;6.30;;;16.80;99.90;;;;;;4982583;28;20118;-73
2022/08/31 03:04:05;;;;;;;8.20;6.30;;;16.90;99.90;;;;;;4988724;28;20106;-73
2022/08/31 03:06:31;;;;;;;7.15;6.43;;;16.80;99.90;;;;;;4987851;28;20113;-74
2022/08/31 03:08:59;;;;;;;9.27;6.68;;;16.80;99.90;;;;;;4981433;28;20161;-74
2022/08/31 03:11:25;;;;;;;8.60;6.53;;;16.90;99.90;;;;;;4981968;28;20022;-74
2022/08/31 03:13:50;;;;;;;7.75;6.05;;;16.90;99.90;;;;;;4993542;28;20033;-74
2022/08/31 03:16:16;;;;;;;7.60;6.53;;;16.90;99.90;;;;;;4981385;28;20620;-74
2022/08/31 03:18:42;;;;;;;8.05;6.07;;;16.90;99.90;;;;;;4987447;28;20027;-74
2022/08/31 03:21:08;;;;;;;7.88;7.00;;;17.00;99.90;;;;;;4987536;28;20045;-73
2022/08/31 03:23:33;;;;;;;8.20;6.68;;;17.00;99.90;;;;;;4979901;28;20041;-73
2022/08/31 03:25:59;;;;;;;7.28;6.30;;;16.90;99.90;;;;;;4980999;28;20034;-74
2022/08/31 03:28:25;;;;;;;7.95;6.68;;;16.90;99.90;;;;;;4993766;28;20049;-73
2022/08/31 03:30:51;;;;;;;8.60;6.65;;;16.90;99.90;;;;;;4980825;28;20027;-73
2022/08/31 03:33:17;;;;;;;7.40;6.45;;;17.00;99.90;;;;;;4979419;28;20026;-73
2022/08/31 03:35:43;;;;;;;7.95;6.40;;;17.00;99.90;;;;;;4981167;28;20034;-75
2022/08/31 03:38:11;;;;;;;9.32;7.13;;;17.00;99.90;;;;;;4987287;28;20030;-75
2022/08/31 03:40:38;;;;;;;7.80;6.15;;;17.00;99.90;;;;;;4972955;28;20488;-74
2022/08/31 03:43:04;;;;;;;8.48;6.60;;;17.00;99.90;;;;;;4987356;28;20108;-73
2022/08/31 03:45:30;;;;;;;8.35;6.63;;;17.10;99.90;;;;;;4987129;28;20018;-72
2022/08/31 03:47:58;;;;;;;7.85;7.05;;;17.10;99.90;;;;;;4978927;28;20037;-72
2022/08/31 03:50:24;;;;;;;7.95;7.15;;;17.00;99.90;;;;;;4993579;28;20101;-73
2022/08/31 03:52:49;;;;;;;7.78;6.70;;;16.90;99.90;;;;;;4978977;28;20161;-73
2022/08/31 03:55:15;;;;;;;9.32;6.68;;;16.80;99.90;;;;;;4981028;28;20030;-73
2022/08/31 03:57:41;;;;;;;8.32;6.85;;;16.80;99.90;;;;;;4986859;28;20027;-74
2022/08/31 04:00:08;;;;;;;7.85;7.15;;;16.90;99.90;;;;;;4984830;28;20113;-74
2022/08/31 04:02:37;;;;;;;9.45;7.40;;;16.80;99.90;;;;;;4978973;28;20399;-72
2022/08/31 04:05:03;;;;;;;8.85;7.32;;;16.80;99.90;;;;;;4993378;28;20077;-73
2022/08/31 04:07:28;;;;;;;9.05;6.97;;;16.70;99.90;;;;;;4978811;28;20026;-73
2022/08/31 04:09:54;;;;;;;8.60;7.13;;;16.70;99.90;;;;;;4993196;28;20022;-73
2022/08/31 04:12:19;;;;;;;7.60;6.88;;;16.70;99.90;;;;;;4979942;28;20037;-75
2022/08/31 04:14:45;;;;;;;8.63;7.18;;;16.60;99.90;;;;;;4991813;28;20028;-73
2022/08/31 04:17:11;;;;;;;9.27;7.18;;;16.60;99.90;;;;;;4986027;28;20026;-73
2022/08/31 04:19:40;;;;;;;9.15;7.00;;;16.60;99.90;;;;;;4972165;28;20400;-73
2022/08/31 04:22:06;;;;;;;8.05;7.07;;;16.60;99.90;;;;;;4973660;28;20026;-73
2022/08/31 04:24:32;;;;;;;7.70;6.80;;;17.00;99.90;;;;;;4986525;28;20080;-73
2022/08/31 04:26:58;;;;;;;7.88;6.35;;;16.60;99.90;;;;;;4998871;23;20026;-77
2022/08/31 04:29:23;;;;;;;6.53;5.85;;;16.70;99.90;;;;;;5032145;28;20168;-75
2022/08/31 04:31:49;;;;;;;8.80;7.07;;;16.80;99.90;;;;;;5032196;28;20532;-74
2022/08/31 04:34:15;;;;;;;7.53;6.68;;;16.80;99.90;;;;;;5020452;28;20033;-75
2022/08/31 04:36:40;;;;;;;6.90;6.15;;;16.80;99.90;;;;;;5023649;28;20036;-74
2022/08/31 04:39:07;;;;;;;9.88;6.40;;;16.80;99.90;;;;;;5005900;28;20415;-74
2022/08/31 04:41:35;;;;;;;7.88;6.53;;;16.80;99.90;;;;;;5006363;28;20029;-74
2022/08/31 04:44:02;;;;;;;8.48;6.60;;;16.80;99.90;;;;;;5011330;28;20072;-75
2022/08/31 04:46:29;;;;;;;7.65;6.55;;;16.70;99.90;;;;;;5000178;28;20021;-74
2022/08/31 04:48:56;;;;;;;8.80;6.88;;;16.70;99.90;;;;;;5001240;28;20048;-75
2022/08/31 04:51:25;;;;;;;7.72;6.88;;;16.70;99.90;;;;;;4998955;28;20030;-74
2022/08/31 04:53:51;;;;;;;8.32;6.95;;;16.60;99.90;;;;;;5011860;28;20487;-75
2022/08/31 04:56:27;;;;;;;7.88;6.22;;;16.70;99.90;;;;;;5004178;28;20500;-75
2022/08/31 04:58:58;;;;;;;9.57;6.63;;;16.70;99.90;;;;;;5005410;28;20422;-73
2022/08/31 05:01:26;;;;;;;6.72;6.05;;;16.70;99.90;;;;;;5002419;28;20452;-75
2022/08/31 05:03:52;;;;;;;8.82;6.65;;;16.80;99.90;;;;;;4998677;28;20026;-73
2022/08/31 05:06:22;;;;;;;9.55;6.75;;;16.70;99.90;;;;;;5000512;28;20085;-75
2022/08/31 05:08:55;;;;;;;8.02;6.28;;;16.90;99.90;;;;;;5003805;28;20081;-75
2022/08/31 05:11:23;;;;;;;8.40;6.85;;;16.80;99.90;;;;;;5004032;28;20064;-75
2022/08/31 05:13:49;;;;;;;7.07;6.13;;;16.80;99.90;;;;;;4991752;28;20033;-73
2022/08/31 05:16:16;;;;;;;8.15;6.68;;;16.80;99.90;;;;;;5004466;28;20026;-74
2022/08/31 05:18:44;;;;;;;8.80;6.82;;;16.90;99.90;;;;;;4997822;28;20368;-73
2022/08/31 05:21:14;;;;;;;7.70;6.60;;;16.70;99.90;;;;;;5014104;28;20053;-75
2022/08/31 05:23:40;;;;;;;8.60;6.30;;;16.60;99.90;;;;;;5003120;28;20065;-75
2022/08/31 05:26:07;;;;;;;7.43;6.18;;;16.70;99.90;;;;;;5003144;28;20061;-76
2022/08/31 05:28:34;;;;;;;6.82;6.13;;;16.70;99.90;;;;;;5008452;28;20033;-75
2022/08/31 05:31:00;;;;;;;7.07;5.78;;;16.70;99.90;;;;;;4997152;28;20105;-75
2022/08/31 05:33:27;;;;;;;6.72;6.00;;;16.60;99.90;;;;;;5002641;28;20105;-75
2022/08/31 05:35:52;;;;;;;7.75;6.32;;;16.70;99.90;;;;;;5002617;28;20022;-75
2022/08/31 05:38:18;;;;;;;8.80;6.13;;;16.80;99.90;;;;;;4989182;28;20088;-72
2022/08/31 05:40:52;;;;;;;6.90;6.05;;;17.10;99.90;;;;;;5003106;28;20072;-75
2022/08/31 05:43:18;;;;;;;7.38;6.20;;;17.10;99.90;;;;;;5000961;28;20061;-75
2022/08/31 05:45:43;;;;;;;8.65;6.30;;;17.10;99.90;;;;;;4998464;28;20053;-76
2022/08/31 05:48:09;;;;;;;7.43;5.93;;;17.10;99.90;;;;;;4998010;28;20034;-76
2022/08/31 05:50:35;;;;;;;8.15;6.10;;;17.20;99.90;;;;;;5003741;28;20109;-77
2022/08/31 05:53:02;;;;;;;6.32;5.72;;;17.30;99.90;;;;;;5001924;28;20428;-76
2022/08/31 05:55:28;;;;;;;7.82;5.88;;;17.50;99.90;;;;;;5003632;28;20018;-76
2022/08/31 05:57:53;;;;;;;6.70;5.95;;;17.50;99.90;;;;;;5004131;28;20026;-76
2022/08/31 06:00:19;;;;;;;7.90;5.85;;;17.40;99.90;;;;;;5010205;28;20033;-77
2022/08/31 06:02:45;;;;;;;8.45;6.55;;;17.40;99.90;;;;;;5004090;28;20038;-76
2022/08/31 06:05:10;;;;;;;6.95;5.50;;;17.30;99.90;;;;;;5002025;28;20065;-76
2022/08/31 06:07:36;;;;;;;6.68;5.57;;;17.40;99.90;;;;;;5006076;28;20068;-76
2022/08/31 06:10:03;;;;;;;6.45;5.10;;;17.50;99.90;;;;;;4995860;28;20064;-76
2022/08/31 06:12:33;;;;;;;6.60;5.30;;;17.60;99.90;;;;;;5006324;28;20026;-75
2022/08/31 06:15:00;;;;;;;6.00;5.18;;;17.70;99.90;;;;;;5011152;28;20010;-75
2022/08/31 06:17:27;;;;;;;6.57;5.47;;;17.80;99.90;;;;;;5005613;28;20018;-76
2022/08/31 06:19:56;;;;;;;6.93;5.28;;;17.90;99.90;;;;;;5008587;28;20022;-75
2022/08/31 06:22:22;;;;;;;5.78;5.18;;;17.90;99.90;;;;;;5004970;28;20013;-74
2022/08/31 06:24:48;;;;;;;6.03;5.38;;;18.00;99.90;;;;;;4998547;28;20399;-75
2022/08/31 06:27:13;;;;;;;6.60;5.45;;;18.10;99.90;;;;;;5003290;28;20491;-75
2022/08/31 06:29:40;;;;;;;5.85;5.22;;;18.00;99.90;;;;;;5008741;28;20057;-75
2022/08/31 06:32:08;;;;;;;5.15;4.65;;;18.00;99.90;;;;;;4993972;28;20026;-75
2022/08/31 06:34:35;;;;;;;5.65;5.07;;;18.10;99.90;;;;;;5005322;28;20510;-75
2022/08/31 06:37:01;;;;;;;8.50;5.18;;;18.10;99.90;;;;;;5002537;28;20495;-75
2022/08/31 06:39:27;;;;;;;6.43;5.22;;;18.10;99.90;;;;;;4999884;28;20487;-75
2022/08/31 06:41:54;;;;;;;6.57;5.10;;;18.20;99.90;;;;;;5004461;28;20053;-75
2022/08/31 06:44:21;;;;;;;6.22;5.13;;;18.30;99.90;;;;;;5007777;28;20046;-75
2022/08/31 06:46:47;;;;;;;7.85;4.75;;;18.30;99.90;;;;;;5003509;28;20499;-75
2022/08/31 06:49:12;;;;;;;5.43;4.55;;;18.40;99.90;;;;;;5013997;28;20029;-75
2022/08/31 06:51:38;;;;;;;5.03;4.53;;;18.40;99.90;;;;;;5012918;28;20108;-77
2022/08/31 06:54:06;;;;;;;6.25;4.75;;;18.50;99.90;;;;;;5013919;28;20060;-77
2022/08/31 06:56:33;;;;;;;5.55;4.82;;;18.50;99.90;;;;;;5013924;28;20062;-77
2022/08/31 06:59:00;;;;;;;5.10;4.47;;;18.60;99.90;;;;;;4996336;28;20432;-75
2022/08/31 07:01:27;;;;;;;4.82;4.32;;;18.70;99.90;;;;;;5005231;28;20029;-75
2022/08/31 07:03:57;;;;;;;5.55;4.50;;;18.70;99.90;;;;;;5013819;28;20101;-75
2022/08/31 07:06:26;;;;;;;6.05;4.32;;;18.70;99.90;;;;;;5012052;28;20026;-75
2022/08/31 07:08:55;;;;;;;4.93;4.43;;;18.80;99.90;;;;;;5013469;28;20136;-75
2022/08/31 07:11:33;;;;;;;6.50;4.78;;;18.70;99.90;;;;;;5013780;28;20033;-75
2022/08/31 07:14:00;;;;;;;7.38;5.03;;;18.80;99.90;;;;;;5021086;28;20017;-75
2022/08/31 07:16:27;;;;;;;5.03;4.53;;;18.90;99.90;;;;;;5003777;28;20022;-75
2022/08/31 07:18:56;;;;;;;5.35;4.13;;;18.90;99.90;;;;;;4992668;28;20018;-76
2022/08/31 07:21:25;;;;;;;7.18;4.85;;;19.00;99.90;;;;;;5002180;28;20053;-75
2022/08/31 07:23:53;;;;;;;6.70;4.90;;;18.90;99.90;;;;;;4993891;28;20031;-75
2022/08/31 07:26:24;;;;;;;6.93;4.30;;;18.90;99.90;;;;;;4993806;28;20030;-75
2022/08/31 07:28:52;;;;;;;7.90;5.00;;;18.80;99.90;;;;;;4992197;28;20061;-75
2022/08/31 07:31:21;;;;;;;4.80;4.30;;;18.90;99.90;;;;;;4992463;28;20030;-75
2022/08/31 07:33:56;;;;;;;5.57;4.25;;;18.90;99.90;;;;;;4993669;28;20555;-75
2022/08/31 07:36:24;;;;;;;5.38;4.75;;;18.90;99.90;;;;;;4992347;28;20030;-75
2022/08/31 07:44:20;;;;;;;5.43;4.50;;;18.90;99.90;;;;;;5006576;28;20033;-74
2022/08/31 07:46:47;;;;;;;5.97;4.95;;;19.00;99.90;;;;;;4992758;28;20366;-75
2022/08/31 07:49:16;;;;;;;4.80;4.40;;;19.10;99.90;;;;;;4992709;28;20062;-74
2022/08/31 07:51:49;;;;;;;5.80;4.50;;;19.20;99.90;;;;;;4993243;28;20392;-74
2022/08/31 07:54:20;;;;;;;6.07;4.65;;;19.20;99.90;;;;;;4993337;28;20037;-74
2022/08/31 07:56:50;;;;;;;4.60;4.13;;;19.30;99.90;;;;;;4992103;28;20765;-73
2022/08/31 07:59:20;;;;;;;4.93;4.53;;;19.40;99.90;;;;;;4991772;28;20037;-73
2022/08/31 08:01:47;;;;;;;4.75;4.18;;;19.50;99.90;;;;;;5006363;28;20013;-74
2022/08/31 08:04:20;;;;;;;6.47;4.55;;;19.50;99.90;;;;;;5000484;28;20037;-73
2022/08/31 08:06:47;;;;;;;5.50;4.60;;;19.40;99.90;;;;;;4999492;28;20093;-73
2022/08/31 08:09:13;;;;;;;4.68;4.28;;;19.50;99.90;;;;;;5004528;28;20026;-74
2022/08/31 08:11:43;;;;;;;6.43;4.55;;;19.60;99.90;;;;;;4994733;28;20027;-74
2022/08/31 08:14:10;;;;;;;6.18;4.43;;;19.60;99.90;;;;;;5021431;28;20044;-74
2022/08/31 08:16:36;;;;;;;5.13;4.50;;;19.80;99.90;;;;;;5012721;28;20041;-74
2022/08/31 08:19:03;;;;;;;5.70;4.32;;;19.70;99.90;;;;;;5001380;28;20052;-74
2022/08/31 08:21:28;;;;;;;5.57;3.80;;;19.70;99.90;;;;;;4999394;28;20033;-73
2022/08/31 08:23:54;;;;;;;5.32;4.47;;;19.80;99.90;;;;;;5004057;28;20026;-73
2022/08/31 08:26:20;;;;;;;4.25;3.85;;;19.80;99.90;;;;;;5007200;28;20391;-74
2022/08/31 08:28:46;;;;;;;7.60;5.28;;;19.70;99.90;;;;;;5001598;28;20451;-74
2022/08/31 08:31:16;;;;;;;6.55;5.28;;;19.90;99.90;;;;;;5005686;28;20030;-74
2022/08/31 08:33:42;;;;;;;4.50;4.10;;;19.90;99.90;;;;;;5010632;28;20041;-74
2022/08/31 08:36:08;;;;;;;4.32;3.92;;;19.90;99.90;;;;;;5009013;28;20506;-74
2022/08/31 08:38:37;;;;;;;6.75;4.57;;;19.90;99.90;;;;;;5000950;28;20026;-73
2022/08/31 08:41:07;;;;;;;4.85;4.35;;;20.00;99.90;;;;;;4999264;28;20023;-74
2022/08/31 08:43:37;;;;;;;7.18;4.55;;;20.20;99.90;;;;;;5001532;28;20109;-74
2022/08/31 08:46:04;;;;;;;4.97;4.43;;;20.20;99.90;;;;;;5005713;28;20026;-73
2022/08/31 08:48:36;;;;;;;6.35;4.35;;;20.10;99.90;;;;;;5002910;28;20034;-73
2022/08/31 08:51:08;;;;;;;8.25;4.35;;;20.00;99.90;;;;;;4999351;28;20543;-73
2022/08/31 08:53:37;;;;;;;5.00;4.47;;;20.30;99.90;;;;;;4999156;28;20033;-73
2022/08/31 08:56:02;;;;;;;4.78;4.25;;;20.20;99.90;;;;;;5011381;28;20071;-73
2022/08/31 08:58:29;;;;;;;5.65;4.40;;;20.30;99.90;;;;;;4999822;28;20022;-73
2022/08/31 09:00:56;;;;;;;5.63;4.20;;;20.50;99.90;;;;;;4992632;28;20089;-73
2022/08/31 09:03:43;;;;;;;4.70;4.20;;;20.30;99.90;;;;;;4992714;28;20018;-74
2022/08/31 09:06:31;;;;;;;5.13;4.05;;;20.40;99.90;;;;;;4992531;28;20030;-74
2022/08/31 09:09:31;;;;;;;6.07;4.60;;;20.50;99.90;;;;;;4996228;28;20030;-73
2022/08/31 09:12:19;;;;;;;5.80;4.25;;;20.50;99.90;;;;;;5011756;28;20026;-74
2022/08/31 09:15:19;;;;;;;5.65;4.28;;;20.50;99.90;;;;;;5025056;28;20044;-74
2022/08/31 09:18:02;;;;;;;6.32;4.78;;;20.60;99.90;;;;;;5011555;28;20022;-74
2022/08/31 09:20:27;;;;;;;10.15;4.90;;;20.70;99.90;;;;;;5011943;28;20022;-74
2022/08/31 09:22:55;;;;;;;6.05;4.35;;;21.00;99.90;;;;;;5001818;28;20402;-74
2022/08/31 09:25:32;;;;;;;5.10;4.55;;;21.00;99.90;;;;;;4992261;28;20035;-74
2022/08/31 09:28:06;;;;;;;4.72;4.15;;;21.00;99.90;;;;;;4991723;28;20442;-74
2022/08/31 09:30:44;;;;;;;5.00;4.35;;;21.10;99.90;;;;;;5014767;28;20038;-73
2022/08/31 09:33:22;;;;;;;6.40;4.30;;;21.30;99.90;;;;;;5009763;28;20050;-74
2022/08/31 09:35:55;;;;;;;4.88;3.90;;;21.30;99.90;;;;;;5005891;28;20030;-74
2022/08/31 09:38:35;;;;;;;5.40;4.47;;;21.40;99.90;;;;;;4994346;28;20026;-74
2022/08/31 09:41:04;;;;;;;6.05;4.55;;;21.50;99.90;;;;;;5008653;28;20079;-73
2022/08/31 09:43:37;;;;;;;6.55;4.65;;;21.40;99.90;;;;;;5013659;28;20018;-74
2022/08/31 09:46:17;;;;;;;4.75;4.28;;;21.40;99.90;;;;;;5005959;28;20031;-74
2022/08/31 09:48:54;;;;;;;5.53;5.03;;;21.40;99.90;;;;;;4995494;28;20393;-73
2022/08/31 09:51:29;;;;;;;5.15;4.65;;;21.50;99.90;;;;;;5003534;28;20018;-73
2022/08/31 09:57:00;;;;;;;6.70;4.30;;;21.80;99.90;;;;;;5008486;28;20543;-74
2022/08/31 09:59:36;;;;;;;5.70;5.10;;;22.00;99.90;;;;;;5006965;28;20022;-74
2022/08/31 10:02:11;;;;;;;5.13;4.63;;;21.90;99.90;;;;;;4998518;28;20018;-75
2022/08/31 10:04:55;;;;;;;5.38;4.88;;;21.80;99.90;;;;;;5004233;28;20521;-75
2022/08/31 10:07:51;;;;;;;6.93;4.88;;;22.00;99.90;;;;;;4992993;28;20041;-75
2022/08/31 10:10:25;;;;;;;8.38;4.60;;;22.30;99.90;;;;;;4997777;28;20029;-75
2022/08/31 10:12:59;;;;;;;5.43;4.93;;;22.20;99.90;;;;;;5005271;28;20029;-74
2022/08/31 10:15:43;;;;;;;5.10;4.30;;;22.10;99.90;;;;;;5007483;28;20491;-74
2022/08/31 10:18:18;;;;;;;5.63;5.00;;;22.20;99.90;;;;;;4991703;28;20022;-74
2022/08/31 10:20:54;;;;;;;5.25;4.75;;;22.30;99.90;;;;;;4992670;28;20512;-74
2022/08/31 10:23:46;;;;;;;5.65;4.80;;;22.40;99.90;;;;;;5009024;28;20109;-74
2022/08/31 10:26:30;;;;;;;5.25;4.75;;;22.60;99.90;;;;;;5005949;28;20399;-74
2022/08/31 10:28:58;;;;;;;7.03;5.43;;;22.50;99.90;;;;;;5027444;22;20056;-74
2022/08/31 10:31:43;;;;;;;7.00;5.10;;;22.40;99.90;;;;;;5016741;28;20030;-74
2022/08/31 10:37:23;;;;;;;7.72;5.18;;;22.60;99.90;;;;;;5031588;28;20726;-74
2022/08/31 10:40:01;;;;;;;6.38;5.10;;;22.70;99.90;;;;;;5016851;28;20038;-74
2022/08/31 10:42:36;;;;;;;5.32;4.82;;;23.20;99.90;;;;;;5012507;28;20056;-74
2022/08/31 10:45:10;;;;;;;6.20;5.25;;;23.30;99.90;;;;;;5011162;28;20018;-74
2022/08/31 10:47:43;;;;;;;8.18;4.80;;;23.10;99.90;;;;;;5009056;28;20136;-75
2022/08/31 10:50:12;;;;;;;5.80;5.13;;;22.80;99.90;;;;;;5012307;28;20026;-74
2022/08/31 10:52:50;;;;;;;5.32;4.82;;;23.00;99.90;;;;;;5012721;28;20029;-75
2022/08/31 10:55:45;;;;;;;6.70;5.07;;;23.30;99.90;;;;;;5012856;28;20022;-74
2022/08/31 10:58:27;;;;;;;5.88;4.97;;;22.80;99.90;;;;;;5024646;28;20042;-74
2022/08/31 11:01:01;;;;;;;6.78;5.25;;;22.70;99.90;;;;;;5032529;28;20397;-74
2022/08/31 11:04:06;;;;;;;6.68;5.28;;;22.50;99.90;;;;;;5016844;28;20102;-75
2022/08/31 11:06:46;;;;;;;6.10;5.05;;;22.40;99.90;;;;;;5012432;28;20018;-74
2022/08/31 11:09:24;;;;;;;5.63;4.70;;;22.30;99.90;;;;;;5010719;28;20029;-74
2022/08/31 11:12:05;;;;;;;5.80;5.15;;;22.30;99.90;;;;;;5018080;28;20031;-74
2022/08/31 11:14:35;;;;;;;5.32;4.82;;;22.20;99.90;;;;;;5013576;28;20080;-74
2022/08/31 11:17:17;;;;;;;5.40;4.90;;;22.20;99.90;;;;;;5012442;28;20121;-74
2022/08/31 11:20:06;;;;;;;7.28;5.05;;;22.20;99.90;;;;;;5012725;28;20058;-74
2022/08/31 11:22:40;;;;;;;5.35;4.85;;;22.50;99.90;;;;;;5010820;28;20100;-74
2022/08/31 11:25:29;;;;;;;5.60;5.07;;;22.30;99.90;;;;;;5019369;28;20057;-74
2022/08/31 11:28:08;;;;;;;7.95;4.95;;;22.20;99.90;;;;;;5013738;28;20034;-74
2022/08/31 11:30:44;;;;;;;5.72;5.13;;;22.30;99.90;;;;;;5013009;28;20025;-74
2022/08/31 11:33:18;;;;;;;5.78;5.13;;;22.50;99.90;;;;;;5017582;28;20049;-74
2022/08/31 11:35:57;;;;;;;6.07;4.95;;;22.60;99.90;;;;;;5025917;28;20064;-74
2022/08/31 11:38:51;;;;;;;6.30;4.90;;;22.70;99.90;;;;;;5031368;28;20024;-74
2022/08/31 11:41:46;;;;;;;5.45;4.95;;;22.80;99.90;;;;;;5032830;28;20397;-74
2022/08/31 11:44:36;;;;;;;5.35;4.70;;;22.80;99.90;;;;;;5031831;28;20688;-74
2022/08/31 11:47:05;;;;;;;6.28;5.25;;;22.90;99.90;;;;;;5031573;28;20057;-73
2022/08/31 11:49:42;;;;;;;5.07;4.57;;;22.70;99.90;;;;;;5014280;28;20022;-73
2022/08/31 11:52:23;;;;;;;5.18;4.68;;;23.00;99.90;;;;;;5012100;28;20030;-73
2022/08/31 11:54:49;;;;;;;6.32;5.20;;;23.00;99.90;;;;;;5022558;28;20448;-74
2022/08/31 11:57:27;;;;;;;5.28;4.78;;;23.10;99.90;;;;;;5011535;28;20049;-74
2022/08/31 11:59:54;;;;;;;5.18;4.68;;;23.00;99.90;;;;;;5011701;28;20026;-72
2022/08/31 12:02:20;;;;;;;5.47;4.80;;;22.50;99.90;;;;;;5011715;28;20053;-74
2022/08/31 12:04:50;;;;;;;6.95;4.60;;;22.50;99.90;;;;;;5012937;28;20080;-73
2022/08/31 12:07:33;;;;;;;5.00;4.53;;;22.80;99.90;;;;;;5029459;28;20092;-73
2022/08/31 12:10:13;;;;;;;5.07;4.55;;;22.90;99.90;;;;;;5018735;28;20084;-74
2022/08/31 12:12:54;;;;;;;5.68;4.53;;;23.00;99.90;;;;;;5012819;28;20062;-73
2022/08/31 12:15:53;;;;;;;4.88;4.38;;;22.70;99.90;;;;;;5012718;28;20020;-73
2022/08/31 12:18:43;;;;;;;5.53;4.80;;;22.70;99.90;;;;;;5025637;28;20029;-73
2022/08/31 12:24:33;;;;;;;5.32;4.68;;;22.90;99.90;;;;;;5020513;28;20040;-73
2022/08/31 12:27:01;;;;;;;5.65;5.10;;;22.70;99.90;;;;;;4999050;28;20037;-72
2022/08/31 12:29:33;;;;;;;5.78;5.05;;;22.60;99.90;;;;;;5012164;28;20038;-73
2022/08/31 12:32:40;;;;;;;5.35;4.72;;;22.40;99.90;;;;;;5011207;28;20036;-73
2022/08/31 12:35:28;;;;;;;6.38;4.90;;;22.40;99.90;;;;;;5000536;28;20121;-73
2022/08/31 12:38:06;;;;;;;4.78;4.38;;;22.70;99.90;;;;;;5010804;28;20048;-73
2022/08/31 12:40:40;;;;;;;6.13;5.03;;;22.60;99.90;;;;;;5012369;28;20022;-74
2022/08/31 12:43:26;;;;;;;7.00;4.97;;;22.30;99.90;;;;;;5025195;28;20025;-73
2022/08/31 12:46:07;;;;;;;5.32;4.80;;;22.30;99.90;;;;;;5013720;28;20029;-73
2022/08/31 12:48:43;;;;;;;7.82;4.80;;;22.50;99.90;;;;;;5019437;28;20113;-73
2022/08/31 12:51:50;;;;;;;4.97;4.47;;;22.00;99.90;;;;;;5011793;28;20451;-72
2022/08/31 12:54:52;;;;;;;5.82;4.28;;;21.90;99.90;;;;;;5030375;28;20340;-72
2022/08/31 12:57:56;;;;;;;5.32;4.85;;;21.90;99.90;;;;;;5027457;28;20486;-72
2022/08/31 13:00:24;;;;;;;5.82;4.43;;;21.80;99.90;;;;;;5008891;28;20076;-73
2022/08/31 13:02:54;;;;;;;7.43;4.30;;;21.80;99.90;;;;;;5010312;28;20033;-72
2022/08/31 13:05:32;;;;;;;6.00;4.10;;;21.80;99.90;;;;;;5013645;28;20021;-73
2022/08/31 13:07:58;;;;;;;5.30;4.05;;;21.70;99.90;;;;;;5016941;28;20503;-73
2022/08/31 13:10:28;;;;;;;6.07;3.80;;;21.60;99.90;;;;;;5011767;28;20076;-74
2022/08/31 13:12:58;;;;;;;4.55;3.85;;;21.70;99.90;;;;;;5022412;28;20029;-73
2022/08/31 13:15:39;;;;;;;4.93;4.05;;;21.70;99.90;;;;;;5017146;28;20503;-73
2022/08/31 13:18:20;;;;;;;4.10;3.70;;;21.70;99.90;;;;;;5018006;28;20022;-74
2022/08/31 13:20:46;;;;;;;4.85;3.78;;;21.90;99.90;;;;;;5011944;28;20100;-72
2022/08/31 13:23:21;;;;;;;3.70;3.40;;;21.80;99.90;;;;;;5012258;28;20364;-73